Time;durP1;ratioP1;P1;durP2;ratioP2;P2;SDS_P1;SDS_P2;PMS_P1;PMS_P2;Temp;Humidity;BMP_temperature;BMP_pressure;BME280_temperature;BME280_humidity;BME280_pressure;Samples;Min_cycle;Max_cycle;Signal;HPM_P1;HPM_P2
2021/05/06 00:05:13;;;;;;;7.13;1.92;;;;;;;14.28;91.74;94188.41;10412732;28;20030;-79
2021/05/06 00:36:03;;;;;;;4.68;1.90;;;;;;;14.00;95.97;94242.59;10371180;28;20053;-79
2021/05/06 01:12:36;;;;;;;5.15;2.50;;;;;;;12.60;100.00;94281.59;10369394;28;20030;-79
2021/05/06 01:17:36;;;;;;;8.48;2.47;;;;;;;12.30;100.00;94286.41;10351652;28;20120;-79
2021/05/06 01:22:37;;;;;;;8.02;4.03;;;;;;;12.23;100.00;94292.19;10368747;28;20485;-79
2021/05/06 01:32:50;;;;;;;3.40;2.17;;;;;;;11.88;100.00;94293.50;10369415;28;20110;-79
2021/05/06 01:38:06;;;;;;;5.32;2.20;;;;;;;11.86;100.00;94299.19;10382028;28;20030;-79
2021/05/06 01:43:23;;;;;;;5.45;2.60;;;;;;;11.74;100.00;94305.00;10386864;28;20045;-79
2021/05/06 01:48:47;;;;;;;5.32;2.72;;;;;;;11.76;100.00;94313.59;10410405;28;20029;-79
2021/05/06 02:00:06;;;;;;;3.00;2.20;;;;;;;11.61;100.00;94327.25;10408129;28;20026;-79
2021/05/06 02:04:32;;;;;;;3.75;1.58;;;;;;;11.52;100.00;94318.22;10391238;28;20489;-79
2021/05/06 02:09:33;;;;;;;5.77;2.43;;;;;;;11.51;100.00;94322.00;10390914;28;20071;-79
2021/05/06 02:14:33;;;;;;;6.13;2.20;;;;;;;11.55;100.00;94323.03;10408310;28;20029;-79
2021/05/06 02:19:37;;;;;;;3.27;2.10;;;;;;;11.62;100.00;94336.91;10407877;28;20284;-79
2021/05/06 02:24:37;;;;;;;3.22;2.47;;;;;;;11.60;100.00;94326.44;10408226;28;20272;-79
2021/05/06 02:29:38;;;;;;;3.83;1.80;;;;;;;11.65;100.00;94333.66;10381577;28;20444;-79
2021/05/06 02:34:40;;;;;;;4.40;1.50;;;;;;;11.62;100.00;94328.84;10367422;28;20040;-79
2021/05/06 02:39:41;;;;;;;8.23;2.58;;;;;;;11.70;100.00;94336.28;10372222;28;20544;-79
2021/05/06 02:44:42;;;;;;;3.40;1.92;;;;;;;11.76;100.00;94345.91;10374775;28;20052;-79
2021/05/06 02:49:47;;;;;;;9.95;2.25;;;;;;;11.94;100.00;94330.06;10374770;28;20037;-79
2021/05/06 02:54:53;;;;;;;6.78;2.50;;;;;;;11.91;100.00;94341.38;10375423;28;20041;-79
2021/05/06 03:05:14;;;;;;;13.57;2.70;;;;;;;11.72;100.00;94350.25;10374464;28;20058;-79
2021/05/06 03:25:56;;;;;;;6.50;2.28;;;;;;;11.03;100.00;94363.97;10373234;28;20078;-79
2021/05/06 03:31:11;;;;;;;3.60;2.30;;;;;;;11.01;100.00;94373.41;10409959;28;20112;-79
2021/05/06 03:41:36;;;;;;;7.32;2.55;;;;;;;11.03;100.00;94377.41;10413920;28;20021;-79
2021/05/06 04:38:47;;;;;;;10.95;2.90;;;;;;;12.32;100.00;94475.53;10370243;28;20026;-80
2021/05/06 05:04:46;;;;;;;16.85;2.90;;;;;;;15.23;100.00;94493.09;10369769;28;20026;-78
2021/05/06 05:10:23;;;;;;;8.43;2.53;;;;;;;16.17;95.49;94495.00;10369215;28;20064;-78
2021/05/06 05:25:44;;;;;;;10.75;2.40;;;;;;;18.01;76.14;94503.91;10369213;28;20382;-78
2021/05/06 05:30:44;;;;;;;11.13;2.65;;;;;;;18.63;72.68;94504.44;10368483;28;20022;-79
2021/05/06 05:41:25;;;;;;;8.27;2.67;;;;;;;20.31;58.93;94500.63;10368267;28;20061;-79
2021/05/06 05:57:08;;;;;;;5.10;2.28;;;;;;;22.49;47.22;94508.28;10408418;28;20479;-79
2021/05/06 06:02:09;;;;;;;4.65;2.45;;;;;;;22.32;45.24;94526.63;10411330;28;20030;-80
2021/05/06 06:07:09;;;;;;;7.40;2.40;;;;;;;23.16;44.94;94521.16;10408685;28;20103;-80
2021/05/06 06:12:10;;;;;;;6.97;2.40;;;;;;;24.15;41.43;94517.22;10408616;28;20036;-80
2021/05/06 06:17:11;;;;;;;8.10;2.10;;;;;;;24.14;42.71;94523.84;10408084;28;20041;-80
2021/05/06 06:22:11;;;;;;;2.92;1.75;;;;;;;25.23;39.89;94527.94;10408019;28;20041;-78
2021/05/06 06:27:12;;;;;;;5.25;1.60;;;;;;;25.84;37.76;94533.41;10402108;28;20041;-78
2021/05/06 06:32:14;;;;;;;4.00;1.00;;;;;;;25.85;38.11;94545.22;10366864;28;20029;-79
2021/05/06 06:37:15;;;;;;;5.57;1.38;;;;;;;26.48;36.75;94540.75;10366694;28;20026;-79
2021/05/06 06:42:16;;;;;;;7.05;1.42;;;;;;;26.52;35.89;94546.31;10366995;28;20108;-79
2021/05/06 06:47:16;;;;;;;5.40;2.10;;;;;;;27.26;35.92;94544.50;10349161;28;20030;-80
2021/05/06 06:52:16;;;;;;;2.50;1.10;;;;;;;27.67;33.73;94547.13;10332884;28;20041;-81
2021/05/06 06:57:17;;;;;;;8.73;1.73;;;;;;;27.65;33.87;94540.41;10366829;28;20028;-80
2021/05/06 07:02:18;;;;;;;3.77;1.57;;;;;;;28.57;32.29;94546.56;10348656;28;20461;-81
2021/05/06 07:07:18;;;;;;;7.40;1.45;;;;;;;28.77;32.73;94545.03;10366052;28;20501;-80
2021/05/06 07:12:19;;;;;;;6.57;2.10;;;;;;;28.63;31.58;94553.28;10366130;28;20037;-79
2021/05/06 07:17:19;;;;;;;4.13;1.30;;;;;;;29.07;32.03;94556.84;10365970;28;20038;-80
2021/05/06 07:22:19;;;;;;;4.80;1.30;;;;;;;28.91;31.67;94555.25;10365639;28;20121;-79
2021/05/06 07:27:20;;;;;;;4.05;1.20;;;;;;;25.16;37.44;94557.28;10380323;28;20029;-79
2021/05/06 07:32:20;;;;;;;8.17;1.20;;;;;;;27.12;35.68;94565.31;10413871;28;20025;-79
2021/05/06 07:37:20;;;;;;;9.27;2.13;;;;;;;28.41;34.30;94553.25;10413786;28;20034;-80
2021/05/06 07:42:21;;;;;;;2.67;1.30;;;;;;;29.51;31.31;94557.56;10413971;28;20029;-80
2021/05/06 07:47:22;;;;;;;2.42;1.13;;;;;;;29.41;31.97;94554.44;10412817;28;20033;-79
2021/05/06 07:52:22;;;;;;;6.13;1.43;;;;;;;29.61;30.31;94551.19;10395218;28;20037;-79
2021/05/06 07:57:24;;;;;;;6.10;1.60;;;;;;;30.28;31.45;94543.81;10413149;28;20358;-79
2021/05/06 08:02:24;;;;;;;7.53;1.70;;;;;;;29.97;29.74;94542.78;10412169;28;20049;-79
2021/05/06 08:07:25;;;;;;;2.47;1.48;;;;;;;30.95;30.05;94545.69;10411984;28;20043;-79
2021/05/06 08:12:26;;;;;;;4.07;1.37;;;;;;;30.58;30.60;94536.88;10412920;28;20033;-79
2021/05/06 08:17:26;;;;;;;3.75;1.65;;;;;;;31.47;29.71;94542.84;10420881;28;20040;-79
2021/05/06 08:22:27;;;;;;;4.43;2.00;;;;;;;32.03;29.17;94539.81;10411888;28;20036;-78
2021/05/06 08:27:27;;;;;;;3.97;1.40;;;;;;;32.01;28.63;94544.19;10404113;28;20026;-79
2021/05/06 08:32:28;;;;;;;4.10;1.20;;;;;;;32.11;28.85;94542.47;10370328;28;20775;-80
2021/05/06 08:37:28;;;;;;;5.70;1.27;;;;;;;31.09;29.62;94542.84;10369687;28;20277;-80
2021/05/06 08:42:29;;;;;;;2.20;0.83;;;;;;;32.63;28.12;94549.72;10352455;28;20057;-79
2021/05/06 08:47:29;;;;;;;3.92;1.50;;;;;;;31.93;27.86;94543.53;10370336;28;20045;-79
2021/05/06 08:52:31;;;;;;;4.57;1.77;;;;;;;32.15;28.63;94546.84;10370309;28;20042;-82
2021/05/06 08:57:32;;;;;;;6.45;1.23;;;;;;;33.37;26.63;94548.94;10368910;28;20542;-80
2021/05/06 09:02:32;;;;;;;2.97;0.80;;;;;;;32.96;25.76;94548.03;10370054;28;20029;-80
2021/05/06 09:07:32;;;;;;;5.00;1.17;;;;;;;31.60;27.10;94550.66;10369575;28;20034;-79
2021/05/06 09:12:36;;;;;;;1.97;0.70;;;;;;;31.46;26.42;94552.38;10369176;28;20026;-79
2021/05/06 09:17:36;;;;;;;2.85;1.20;;;;;;;29.53;29.36;94556.00;10352133;28;20288;-79
2021/05/06 09:22:45;;;;;;;4.63;0.90;;;;;;;31.49;26.96;94554.31;10368472;28;20032;-79
2021/05/06 09:27:46;;;;;;;5.72;1.30;;;;;;;28.40;29.17;94568.25;10378978;28;20055;-79
2021/05/06 09:32:46;;;;;;;2.20;1.00;;;;;;;30.14;29.68;94560.50;10409633;28;20033;-79
2021/05/06 09:37:49;;;;;;;4.03;0.83;;;;;;;31.71;25.96;94562.44;10408893;28;20416;-81
2021/05/06 09:42:52;;;;;;;3.55;0.60;;;;;;;33.96;24.15;94557.78;10408576;28;20056;-79
2021/05/06 09:48:12;;;;;;;3.38;0.70;;;;;;;35.71;22.59;94538.09;10409206;28;20384;-79
2021/05/06 09:53:15;;;;;;;2.85;0.73;;;;;;;33.84;23.80;94543.28;10409178;28;20048;-79
2021/05/06 09:58:24;;;;;;;1.65;0.60;;;;;;;35.91;22.22;94548.34;10408275;28;20033;-81
2021/05/06 10:03:33;;;;;;;2.60;1.00;;;;;;;35.29;21.57;94546.34;10408709;28;20095;-79
2021/05/06 10:08:34;;;;;;;2.63;0.80;;;;;;;35.09;21.77;94533.28;10390453;28;20035;-79
2021/05/06 10:13:38;;;;;;;1.42;0.68;;;;;;;35.19;22.62;94536.25;10390191;28;20056;-79
2021/05/06 10:18:41;;;;;;;5.07;0.80;;;;;;;35.86;22.00;94532.09;10407601;28;20029;-79
2021/05/06 10:23:44;;;;;;;3.03;0.70;;;;;;;33.93;23.55;94533.56;10408099;28;20035;-79
2021/05/06 10:28:45;;;;;;;13.43;1.25;;;;;;;34.88;23.08;94533.84;10388496;28;20038;-79
2021/05/06 10:33:46;;;;;;;6.55;1.02;;;;;;;35.25;22.73;94543.66;10366955;28;20029;-79
2021/05/06 10:38:46;;;;;;;2.25;0.60;;;;;;;34.19;22.17;94543.75;10367114;28;20037;-80
2021/05/06 10:43:58;;;;;;;1.20;0.70;;;;;;;35.27;21.03;94536.88;10366310;28;20050;-78
2021/05/06 10:49:03;;;;;;;3.03;0.80;;;;;;;36.03;21.94;94536.41;10348790;28;20034;-79
2021/05/06 10:54:49;;;;;;;3.30;1.27;;;;;;;36.00;21.68;94537.28;10367617;28;20456;-79
2021/05/06 10:59:50;;;;;;;2.85;1.10;;;;;;;35.57;22.22;94544.84;10278722;28;20129;-79
2021/05/06 11:05:09;;;;;;;3.08;1.10;;;;;;;32.99;24.87;94557.50;10373992;28;20038;-79
2021/05/06 11:10:10;;;;;;;1.27;0.90;;;;;;;30.65;26.90;94558.22;10356841;28;20481;-79
2021/05/06 11:15:19;;;;;;;4.97;1.17;;;;;;;27.34;30.72;94564.66;10373928;28;20026;-79
2021/05/06 11:20:20;;;;;;;2.47;1.10;;;;;;;26.13;31.64;94563.25;10373284;28;20037;-79
2021/05/06 11:30:35;;;;;;;4.00;1.00;;;;;;;24.39;34.21;94574.53;10406170;28;20111;-79
2021/05/06 11:35:55;;;;;;;2.55;1.48;;;;;;;23.93;36.87;94571.75;10413760;28;20431;-79
2021/05/06 11:40:59;;;;;;;3.78;1.48;;;;;;;23.86;37.15;94555.91;10413398;28;20044;-79
2021/05/06 11:46:12;;;;;;;15.00;1.52;;;;;;;23.54;37.68;94561.53;10413490;28;20497;-79
2021/05/06 11:51:44;;;;;;;5.40;2.28;;;;;;;23.65;37.53;94550.78;10413466;28;20090;-78
2021/05/06 11:56:50;;;;;;;2.97;1.27;;;;;;;23.26;39.03;94566.41;10392782;28;20053;-79
2021/05/06 12:01:51;;;;;;;6.50;1.65;;;;;;;23.07;40.25;94559.72;10413344;28;20072;-79
2021/05/06 12:06:53;;;;;;;8.20;1.88;;;;;;;23.25;38.31;94559.34;10412940;28;20523;-79
2021/05/06 12:11:54;;;;;;;3.70;1.30;;;;;;;23.09;38.07;94556.63;10412083;28;20080;-80
2021/05/06 12:16:54;;;;;;;4.72;1.15;;;;;;;22.94;38.95;94547.28;10413016;28;20034;-80
2021/05/06 12:21:57;;;;;;;3.38;1.35;;;;;;;23.11;37.71;94537.84;10394468;28;20393;-80
2021/05/06 12:26:59;;;;;;;4.90;1.42;;;;;;;23.17;38.81;94541.94;10390027;28;20037;-80
2021/05/06 12:32:00;;;;;;;2.75;1.20;;;;;;;23.03;38.01;94540.44;10353085;28;20505;-80
2021/05/06 12:37:01;;;;;;;5.57;1.37;;;;;;;23.01;39.21;94540.03;10371239;28;20030;-79
2021/05/06 12:42:06;;;;;;;1.63;1.00;;;;;;;23.01;39.54;94523.56;10352742;28;20053;-80
2021/05/06 12:47:15;;;;;;;8.43;1.95;;;;;;;23.22;38.09;94527.97;10370517;28;20054;-78
2021/05/06 12:52:29;;;;;;;2.10;1.30;;;;;;;23.11;38.70;94526.88;10353413;28;20080;-78
2021/05/06 12:57:29;;;;;;;4.47;1.52;;;;;;;22.94;39.22;94520.69;10369875;28;20232;-79
2021/05/06 13:02:30;;;;;;;3.90;1.08;;;;;;;22.91;37.11;94537.03;10369517;28;20508;-79
2021/05/06 13:07:31;;;;;;;4.20;1.23;;;;;;;22.72;39.85;94524.88;10370293;28;20060;-79
2021/05/06 13:12:42;;;;;;;3.42;1.38;;;;;;;22.67;40.79;94533.34;10369111;28;20030;-79
2021/05/06 13:17:42;;;;;;;6.32;1.10;;;;;;;22.68;38.58;94524.78;10351683;28;20072;-79
2021/05/06 13:22:58;;;;;;;7.07;1.37;;;;;;;22.65;40.61;94521.97;10351337;28;20124;-78
2021/05/06 13:27:59;;;;;;;5.75;1.33;;;;;;;22.55;38.61;94517.03;10368752;28;20536;-79
2021/05/06 13:33:10;;;;;;;4.00;1.20;;;;;;;22.55;37.93;94515.09;10368661;28;20034;-79
2021/05/06 13:38:11;;;;;;;3.85;1.02;;;;;;;22.51;37.10;94506.78;10351472;28;20064;-80
2021/05/06 13:43:11;;;;;;;1.63;0.90;;;;;;;22.46;37.72;94507.03;10376471;28;20145;-79
2021/05/06 13:48:11;;;;;;;1.50;0.97;;;;;;;22.24;37.37;94511.16;10408411;28;20030;-79
2021/05/06 13:53:12;;;;;;;3.37;1.20;;;;;;;22.13;38.08;94510.13;10408725;28;20056;-79
2021/05/06 13:58:13;;;;;;;3.95;1.15;;;;;;;21.73;38.51;94500.91;10408412;28;20029;-79
2021/05/06 14:03:14;;;;;;;3.55;0.95;;;;;;;21.82;38.86;94501.53;10408088;28;20056;-80
2021/05/06 14:08:16;;;;;;;4.65;1.17;;;;;;;21.77;36.79;94493.59;10408366;28;20105;-80
2021/05/06 14:13:17;;;;;;;1.92;1.20;;;;;;;21.71;36.80;94489.50;10408379;28;20030;-80
2021/05/06 14:18:18;;;;;;;3.35;1.00;;;;;;;21.53;36.54;94496.44;10407636;28;20037;-79
2021/05/06 14:23:20;;;;;;;3.85;0.80;;;;;;;21.33;37.53;94486.13;10407741;28;20400;-79
2021/05/06 14:28:21;;;;;;;3.83;0.98;;;;;;;21.47;36.75;94487.66;10392538;28;20080;-79
2021/05/06 14:33:21;;;;;;;2.08;0.98;;;;;;;21.33;35.74;94480.66;10350570;28;20478;-79
2021/05/06 14:38:22;;;;;;;3.30;1.20;;;;;;;21.44;35.66;94482.91;10375384;28;20022;-80
2021/05/06 14:43:22;;;;;;;2.33;1.07;;;;;;;21.34;34.42;94481.47;10375439;28;20099;-80
2021/05/06 14:48:23;;;;;;;1.73;1.27;;;;;;;21.29;33.62;94477.03;10374609;28;20030;-79
2021/05/06 14:53:24;;;;;;;4.32;1.10;;;;;;;21.23;33.80;94464.75;10375221;28;20113;-79
2021/05/06 14:58:30;;;;;;;4.43;1.30;;;;;;;21.21;33.46;94475.25;10374685;28;20499;-79
2021/05/06 15:03:30;;;;;;;3.35;1.20;;;;;;;21.07;35.49;94475.66;10387593;28;20030;-79
2021/05/06 15:08:30;;;;;;;3.10;1.00;;;;;;;21.03;33.87;94473.94;10373771;28;20476;-79
2021/05/06 15:13:31;;;;;;;8.07;1.37;;;;;;;20.87;34.53;94469.19;10374103;28;20300;-79
2021/05/06 15:18:31;;;;;;;8.43;1.20;;;;;;;20.87;34.20;94471.13;10373104;28;20277;-79
2021/05/06 15:23:32;;;;;;;3.38;0.80;;;;;;;20.73;35.65;94466.03;10373227;28;20393;-79
2021/05/06 15:28:32;;;;;;;0.97;0.70;;;;;;;20.71;34.26;94466.41;10390578;28;20017;-80
2021/05/06 15:33:32;;;;;;;4.80;1.73;;;;;;;20.57;35.25;94466.72;10413700;28;20108;-79
2021/05/06 15:38:33;;;;;;;3.45;1.20;;;;;;;20.61;35.90;94464.91;10413726;28;20025;-79
2021/05/06 15:43:33;;;;;;;3.17;1.00;;;;;;;20.64;35.19;94464.22;10413402;28;20072;-78
2021/05/06 15:48:35;;;;;;;4.47;0.95;;;;;;;20.57;34.66;94457.72;10413046;28;20041;-80
2021/05/06 15:53:35;;;;;;;2.45;1.08;;;;;;;20.55;35.35;94454.56;10413482;28;20507;-79
2021/05/06 15:58:37;;;;;;;7.22;0.88;;;;;;;20.47;34.92;94461.72;10395585;28;20017;-79
2021/05/06 16:03:51;;;;;;;3.88;0.90;;;;;;;20.42;35.55;94456.50;10412425;28;20483;-79
2021/05/06 16:08:51;;;;;;;4.95;1.23;;;;;;;20.25;34.86;94454.81;10412518;28;20100;-79
2021/05/06 16:13:51;;;;;;;4.77;1.20;;;;;;;20.25;34.97;94463.00;10412405;28;20025;-79
2021/05/06 16:18:52;;;;;;;4.47;1.10;;;;;;;20.17;34.07;94458.47;10412518;28;20091;-79
2021/05/06 16:23:52;;;;;;;4.73;1.40;;;;;;;20.17;35.02;94453.78;10411714;28;20029;-79
2021/05/06 16:28:53;;;;;;;1.63;0.98;;;;;;;20.15;35.12;94458.81;10391803;28;20280;-80
2021/05/06 16:34:02;;;;;;;4.68;1.13;;;;;;;20.08;35.06;94458.53;10353909;28;20029;-80
2021/05/06 16:39:35;;;;;;;5.38;1.40;;;;;;;20.05;34.08;94456.50;10370756;28;20072;-80
2021/05/06 16:44:35;;;;;;;3.65;1.30;;;;;;;20.00;35.08;94454.03;10370091;28;20506;-79
2021/05/06 16:49:35;;;;;;;3.10;1.57;;;;;;;19.92;34.99;94448.31;10353140;28;20117;-80
2021/05/06 16:54:36;;;;;;;3.00;1.08;;;;;;;19.86;34.77;94457.06;10352393;28;20045;-80
2021/05/06 16:59:37;;;;;;;1.13;1.02;;;;;;;19.77;36.60;94459.84;10368891;28;20459;-80
2021/05/06 17:04:38;;;;;;;2.67;0.97;;;;;;;19.73;35.48;94442.56;10352349;28;20033;-79
2021/05/06 17:09:39;;;;;;;11.40;1.92;;;;;;;19.56;36.75;94452.53;10369485;28;20362;-79
2021/05/06 17:14:39;;;;;;;2.30;1.20;;;;;;;19.50;36.77;94437.53;10368948;28;20030;-79
2021/05/06 17:19:39;;;;;;;5.10;1.47;;;;;;;19.39;36.74;94447.28;10369219;28;20125;-79
2021/05/06 17:24:40;;;;;;;5.00;1.67;;;;;;;19.26;38.50;94449.97;10368687;28;20122;-79
2021/05/06 17:29:40;;;;;;;4.60;1.93;;;;;;;19.13;38.69;94446.41;10368483;28;20026;-79
2021/05/06 17:34:40;;;;;;;4.87;2.27;;;;;;;19.00;38.11;94438.53;10368669;28;20280;-78
2021/05/06 17:39:41;;;;;;;6.80;1.60;;;;;;;18.75;38.83;94441.91;10368373;28;20034;-79
2021/05/06 17:44:41;;;;;;;4.93;2.10;;;;;;;18.62;40.32;94440.22;10389135;28;20140;-79
2021/05/06 17:49:42;;;;;;;3.87;1.70;;;;;;;18.43;41.51;94446.94;10408936;28;20033;-79
2021/05/06 17:54:42;;;;;;;3.60;2.00;;;;;;;18.26;42.76;94450.53;10408663;28;20038;-80
2021/05/06 17:59:43;;;;;;;6.93;2.40;;;;;;;18.16;43.27;94455.56;10408218;28;20033;-79
2021/05/06 18:04:43;;;;;;;3.97;1.90;;;;;;;18.09;44.05;94456.84;10408246;28;20766;-79
2021/05/06 18:09:55;;;;;;;5.55;2.47;;;;;;;18.05;45.76;94449.69;10407772;28;20439;-79
2021/05/06 18:14:55;;;;;;;4.63;2.45;;;;;;;17.84;47.19;94453.09;10411793;28;20469;-79
2021/05/06 18:19:56;;;;;;;11.10;2.90;;;;;;;17.76;49.84;94470.25;10407379;28;20029;-79
2021/05/06 18:24:57;;;;;;;9.80;2.47;;;;;;;17.45;47.12;94474.00;10408028;28;20774;-79
2021/05/06 18:29:57;;;;;;;8.32;2.63;;;;;;;17.13;48.19;94476.13;10378829;28;20033;-79
2021/05/06 18:34:58;;;;;;;5.82;1.92;;;;;;;16.75;49.63;94493.03;10366738;28;20388;-79
2021/05/06 18:40:00;;;;;;;2.50;1.75;;;;;;;16.48;50.70;94494.94;10367432;28;20076;-79
2021/05/06 18:45:01;;;;;;;3.53;2.25;;;;;;;16.44;50.69;94504.00;10366560;28;20046;-79
2021/05/06 18:50:01;;;;;;;4.27;1.87;;;;;;;16.40;51.63;94503.84;10366405;28;20083;-78
2021/05/06 18:55:01;;;;;;;3.87;1.77;;;;;;;16.44;51.62;94515.66;10349554;28;20037;-79
2021/05/06 19:00:06;;;;;;;2.83;1.80;;;;;;;16.20;51.70;94519.59;10365873;28;20319;-79
2021/05/06 19:05:06;;;;;;;3.28;1.58;;;;;;;16.14;52.05;94522.75;10366345;28;20034;-79
2021/05/06 19:10:07;;;;;;;3.90;2.45;;;;;;;16.09;51.78;94518.28;10349238;28;20026;-79
2021/05/06 19:15:08;;;;;;;4.85;2.08;;;;;;;16.11;52.00;94526.09;10365838;28;20030;-79
2021/05/06 19:20:09;;;;;;;5.97;4.45;;;;;;;16.16;50.71;94528.63;10368641;28;20034;-80
2021/05/06 19:25:11;;;;;;;4.53;1.95;;;;;;;16.06;50.01;94521.59;10374398;28;20064;-80
2021/05/06 19:30:12;;;;;;;4.25;1.83;;;;;;;16.01;50.85;94508.19;10402943;28;20030;-80
2021/05/06 19:35:13;;;;;;;3.35;1.35;;;;;;;15.99;51.07;94515.81;10412355;28;20485;-80
2021/05/06 19:40:13;;;;;;;2.45;1.50;;;;;;;15.93;52.06;94508.94;10413576;28;20033;-79
2021/05/06 19:45:19;;;;;;;4.75;1.50;;;;;;;15.87;52.01;94514.50;10412566;28;20045;-79
2021/05/06 19:50:20;;;;;;;10.88;2.05;;;;;;;15.97;51.06;94508.00;10426395;28;20025;-79
2021/05/06 19:55:21;;;;;;;7.15;1.90;;;;;;;16.03;50.27;94508.66;10395566;28;20034;-79
2021/05/06 20:00:21;;;;;;;3.90;1.92;;;;;;;16.08;50.08;94499.59;10412200;28;20063;-79
2021/05/06 20:05:22;;;;;;;2.40;1.50;;;;;;;16.16;49.39;94482.53;10412014;28;20037;-79
2021/05/06 20:10:22;;;;;;;2.70;2.13;;;;;;;16.17;49.64;94481.44;10411866;28;20029;-79
2021/05/06 20:15:23;;;;;;;5.80;1.35;;;;;;;16.12;50.01;94482.38;10411796;28;20026;-79
2021/05/06 20:20:29;;;;;;;1.83;1.40;;;;;;;15.93;49.76;94481.84;10411319;28;20052;-80
2021/05/06 20:25:31;;;;;;;3.47;1.55;;;;;;;15.71;51.87;94483.47;10411936;28;20155;-79
2021/05/06 20:30:31;;;;;;;2.22;1.90;;;;;;;15.60;53.76;94485.66;10360564;28;20038;-79
2021/05/06 20:35:31;;;;;;;5.73;1.53;;;;;;;15.43;56.70;94499.88;10370167;28;20033;-79
2021/05/06 20:40:32;;;;;;;4.20;1.97;;;;;;;15.19;59.14;94514.53;10369688;28;20037;-79
2021/05/06 20:45:32;;;;;;;2.23;1.37;;;;;;;14.90;62.15;94520.38;10370016;28;20703;-79
2021/05/06 20:50:33;;;;;;;2.23;1.40;;;;;;;14.78;63.19;94528.25;10369478;28;20076;-79
2021/05/06 20:55:34;;;;;;;10.45;2.05;;;;;;;14.93;63.29;94543.31;10369234;28;20041;-80
2021/05/06 21:00:34;;;;;;;3.55;1.45;;;;;;;15.04;64.16;94547.38;10369645;28;20030;-79
2021/05/06 21:05:34;;;;;;;4.60;1.87;;;;;;;15.18;66.30;94541.94;10369150;28;20544;-80
2021/05/06 21:10:35;;;;;;;2.97;1.80;;;;;;;15.21;67.21;94542.13;10368674;28;20273;-80
2021/05/06 21:15:35;;;;;;;3.33;1.93;;;;;;;15.14;67.24;94538.22;10369409;28;20026;-80
2021/05/06 21:20:35;;;;;;;2.90;1.80;;;;;;;15.16;63.32;94538.75;10368782;28;20033;-80
2021/05/06 21:25:36;;;;;;;3.07;1.47;;;;;;;15.12;61.79;94549.38;10350911;28;20354;-80
2021/05/06 21:30:36;;;;;;;3.43;2.13;;;;;;;14.80;65.03;94548.44;10368784;28;20113;-80
2021/05/06 21:35:37;;;;;;;2.38;1.63;;;;;;;14.61;67.22;94545.88;10368193;28;20276;-80
2021/05/06 21:40:37;;;;;;;5.38;1.80;;;;;;;14.76;70.35;94552.09;10367866;28;20136;-80
2021/05/06 21:45:38;;;;;;;4.20;1.60;;;;;;;14.78;69.05;94545.25;10396249;28;20106;-78
2021/05/06 21:50:38;;;;;;;2.58;1.40;;;;;;;14.75;70.33;94551.28;10390289;28;20082;-79
2021/05/06 21:55:39;;;;;;;3.92;2.67;;;;;;;14.78;70.21;94545.25;10409235;28;20056;-79
2021/05/06 22:00:39;;;;;;;6.60;2.23;;;;;;;14.76;75.92;94550.16;10408223;28;20044;-79
2021/05/06 22:05:41;;;;;;;4.53;2.20;;;;;;;14.94;74.27;94553.03;10390502;28;20029;-79
2021/05/06 22:10:41;;;;;;;4.50;1.80;;;;;;;14.90;76.68;94550.13;10389848;28;20091;-79
2021/05/06 22:15:43;;;;;;;22.88;4.35;;;;;;;14.98;73.41;94554.03;10407392;28;20029;-79
2021/05/06 22:21:07;;;;;;;2.83;1.58;;;;;;;14.94;71.78;94542.22;10421349;28;20488;-79
2021/05/06 22:26:09;;;;;;;5.10;2.05;;;;;;;14.80;72.63;94540.34;10448278;28;20144;-79
2021/05/06 22:31:10;;;;;;;3.75;1.90;;;;;;;14.60;73.73;94546.97;10409552;28;20038;-79
2021/05/06 22:36:11;;;;;;;7.80;3.33;;;;;;;14.64;74.56;94536.38;10407026;28;20087;-79
2021/05/06 22:41:11;;;;;;;8.47;2.67;;;;;;;14.47;77.10;94539.66;10407026;28;20798;-79
2021/05/06 22:46:11;;;;;;;3.97;2.47;;;;;;;14.55;75.58;94521.94;10406683;28;20504;-80
2021/05/06 22:51:12;;;;;;;4.10;2.80;;;;;;;14.45;78.37;94529.16;10407236;28;20284;-79
2021/05/06 22:56:12;;;;;;;8.10;2.70;;;;;;;14.61;77.49;94515.31;10411478;28;20037;-79
2021/05/06 23:01:13;;;;;;;5.43;2.20;;;;;;;14.73;77.84;94504.00;10414511;28;20296;-79
2021/05/06 23:06:13;;;;;;;4.28;2.22;;;;;;;14.77;75.83;94500.38;10414836;28;20329;-79
2021/05/06 23:11:14;;;;;;;4.25;3.60;;;;;;;14.69;78.40;94512.72;10414348;28;20029;-80
2021/05/06 23:16:15;;;;;;;3.00;1.70;;;;;;;14.69;81.05;94509.22;10413563;28;20386;-78
2021/05/06 23:21:16;;;;;;;3.67;1.88;;;;;;;14.63;81.06;94519.34;10414310;28;20184;-78
2021/05/06 23:26:16;;;;;;;8.48;3.67;;;;;;;14.56;89.84;94512.72;10413689;28;20082;-78
2021/05/06 23:31:17;;;;;;;5.32;3.75;;;;;;;14.37;92.85;94505.53;10373651;28;20026;-78
2021/05/06 23:36:17;;;;;;;8.18;3.38;;;;;;;14.02;92.27;94511.38;10372976;28;20057;-78
2021/05/06 23:41:18;;;;;;;6.43;3.53;;;;;;;13.78;96.96;94525.06;10372179;28;20033;-78
2021/05/06 23:46:18;;;;;;;6.10;3.33;;;;;;;13.87;97.36;94514.38;10371661;28;20045;-78
2021/05/06 23:51:18;;;;;;;6.72;3.10;;;;;;;13.80;100.00;94516.66;10354247;28;20030;-78
2021/05/06 23:56:19;;;;;;;6.03;3.42;;;;;;;13.76;100.00;94511.06;10371324;28;20038;-78
